sensor_id;sensor_type;location;lat;lon;timestamp;temperature;humidity
13682;DHT22;6913;49.892;7.936;2022-07-10T00:00:25;16.80;99.90
13682;DHT22;6913;49.892;7.936;2022-07-10T00:02:53;16.80;99.90
13682;DHT22;6913;49.892;7.936;2022-07-10T00:05:22;16.90;99.90
13682;DHT22;6913;49.892;7.936;2022-07-10T00:07:50;16.60;99.90
13682;DHT22;6913;49.892;7.936;2022-07-10T00:10:18;16.60;99.90
13682;DHT22;6913;49.892;7.936;2022-07-10T00:12:45;16.60;99.90
13682;DHT22;6913;49.892;7.936;2022-07-10T00:15:13;16.70;99.90
13682;DHT22;6913;49.892;7.936;2022-07-10T00:17:41;16.80;99.90
13682;DHT22;6913;49.892;7.936;2022-07-10T00:20:09;16.90;99.90
13682;DHT22;6913;49.892;7.936;2022-07-10T00:22:38;16.70;99.90
13682;DHT22;6913;49.892;7.936;2022-07-10T00:25:06;16.80;99.90
13682;DHT22;6913;49.892;7.936;2022-07-10T00:27:33;16.80;99.90
13682;DHT22;6913;49.892;7.936;2022-07-10T00:30:00;16.80;99.90
13682;DHT22;6913;49.892;7.936;2022-07-10T00:32:28;16.70;99.90
13682;DHT22;6913;49.892;7.936;2022-07-10T00:34:55;16.70;99.90
13682;DHT22;6913;49.892;7.936;2022-07-10T00:37:22;16.60;99.90
13682;DHT22;6913;49.892;7.936;2022-07-10T00:39:50;16.60;99.90
13682;DHT22;6913;49.892;7.936;2022-07-10T00:42:17;16.60;99.90
13682;DHT22;6913;49.892;7.936;2022-07-10T00:44:44;16.60;99.90
13682;DHT22;6913;49.892;7.936;2022-07-10T00:47:11;16.50;99.90
13682;DHT22;6913;49.892;7.936;2022-07-10T00:49:39;16.50;99.90
13682;DHT22;6913;49.892;7.936;2022-07-10T00:52:08;16.50;99.90
13682;DHT22;6913;49.892;7.936;2022-07-10T00:54:37;16.50;99.90
13682;DHT22;6913;49.892;7.936;2022-07-10T00:57:07;16.60;99.90
13682;DHT22;6913;49.892;7.936;2022-07-10T00:59:34;16.50;99.90
13682;DHT22;6913;49.892;7.936;2022-07-10T01:02:03;16.50;99.90
13682;DHT22;6913;49.892;7.936;2022-07-10T01:04:31;16.40;99.90
13682;DHT22;6913;49.892;7.936;2022-07-10T01:06:57;16.50;99.90
13682;DHT22;6913;49.892;7.936;2022-07-10T01:09:24;16.50;99.90
13682;DHT22;6913;49.892;7.936;2022-07-10T01:11:52;16.50;99.90
13682;DHT22;6913;49.892;7.936;2022-07-10T01:14:20;16.50;99.90
13682;DHT22;6913;49.892;7.936;2022-07-10T01:16:48;16.60;99.90
13682;DHT22;6913;49.892;7.936;2022-07-10T01:19:15;16.70;99.90
13682;DHT22;6913;49.892;7.936;2022-07-10T01:21:43;16.60;99.90
13682;DHT22;6913;49.892;7.936;2022-07-10T01:24:11;16.60;99.90
13682;DHT22;6913;49.892;7.936;2022-07-10T01:26:38;16.60;99.90
13682;DHT22;6913;49.892;7.936;2022-07-10T01:29:09;16.60;99.90
13682;DHT22;6913;49.892;7.936;2022-07-10T01:31:36;16.50;99.90
13682;DHT22;6913;49.892;7.936;2022-07-10T01:34:06;16.50;99.90
13682;DHT22;6913;49.892;7.936;2022-07-10T01:36:34;16.50;99.90
13682;DHT22;6913;49.892;7.936;2022-07-10T01:39:02;16.50;99.90
13682;DHT22;6913;49.892;7.936;2022-07-10T01:41:29;16.50;99.90
13682;DHT22;6913;49.892;7.936;2022-07-10T01:43:56;16.40;99.90
13682;DHT22;6913;49.892;7.936;2022-07-10T01:46:23;16.40;99.90
13682;DHT22;6913;49.892;7.936;2022-07-10T01:48:51;16.40;99.90
13682;DHT22;6913;49.892;7.936;2022-07-10T01:51:18;16.40;99.90
13682;DHT22;6913;49.892;7.936;2022-07-10T01:53:45;16.40;99.90
13682;DHT22;6913;49.892;7.936;2022-07-10T01:56:14;16.60;99.90
13682;DHT22;6913;49.892;7.936;2022-07-10T01:58:41;16.30;99.90
13682;DHT22;6913;49.892;7.936;2022-07-10T02:01:09;16.30;99.90
13682;DHT22;6913;49.892;7.936;2022-07-10T02:03:36;16.30;99.90
13682;DHT22;6913;49.892;7.936;2022-07-10T02:06:20;16.20;99.90
13682;DHT22;6913;49.892;7.936;2022-07-10T02:08:47;16.20;99.90
13682;DHT22;6913;49.892;7.936;2022-07-10T02:11:15;16.20;99.90
13682;DHT22;6913;49.892;7.936;2022-07-10T02:13:42;16.20;99.90
13682;DHT22;6913;49.892;7.936;2022-07-10T02:16:09;16.20;99.90
13682;DHT22;6913;49.892;7.936;2022-07-10T02:18:37;16.20;99.90
13682;DHT22;6913;49.892;7.936;2022-07-10T02:21:04;16.30;99.90
13682;DHT22;6913;49.892;7.936;2022-07-10T02:23:32;16.50;99.90
13682;DHT22;6913;49.892;7.936;2022-07-10T02:25:59;16.20;99.90
13682;DHT22;6913;49.892;7.936;2022-07-10T02:28:28;16.20;99.90
13682;DHT22;6913;49.892;7.936;2022-07-10T02:30:55;16.50;99.90
13682;DHT22;6913;49.892;7.936;2022-07-10T02:33:22;16.30;99.90
13682;DHT22;6913;49.892;7.936;2022-07-10T02:35:48;16.20;99.90
13682;DHT22;6913;49.892;7.936;2022-07-10T02:38:15;16.20;99.90
13682;DHT22;6913;49.892;7.936;2022-07-10T02:40:42;16.10;99.90
13682;DHT22;6913;49.892;7.936;2022-07-10T02:43:09;16.00;99.90
13682;DHT22;6913;49.892;7.936;2022-07-10T02:45:37;15.90;99.90
13682;DHT22;6913;49.892;7.936;2022-07-10T02:48:04;15.90;99.90
13682;DHT22;6913;49.892;7.936;2022-07-10T02:50:31;15.90;99.90
13682;DHT22;6913;49.892;7.936;2022-07-10T02:52:58;15.90;99.90
13682;DHT22;6913;49.892;7.936;2022-07-10T02:55:25;15.80;99.90
13682;DHT22;6913;49.892;7.936;2022-07-10T02:57:52;16.00;99.90
13682;DHT22;6913;49.892;7.936;2022-07-10T03:00:19;15.70;99.90
13682;DHT22;6913;49.892;7.936;2022-07-10T03:02:47;15.60;99.90
13682;DHT22;6913;49.892;7.936;2022-07-10T03:05:14;15.60;99.90
13682;DHT22;6913;49.892;7.936;2022-07-10T03:07:40;15.60;99.90
13682;DHT22;6913;49.892;7.936;2022-07-10T03:10:08;15.60;99.90
13682;DHT22;6913;49.892;7.936;2022-07-10T03:12:35;15.50;99.90
13682;DHT22;6913;49.892;7.936;2022-07-10T03:15:03;15.40;99.90
13682;DHT22;6913;49.892;7.936;2022-07-10T03:17:30;15.40;99.90
13682;DHT22;6913;49.892;7.936;2022-07-10T03:19:59;15.40;99.90
13682;DHT22;6913;49.892;7.936;2022-07-10T03:22:25;15.40;99.90
13682;DHT22;6913;49.892;7.936;2022-07-10T03:24:53;15.40;99.90
13682;DHT22;6913;49.892;7.936;2022-07-10T03:27:20;15.30;99.90
13682;DHT22;6913;49.892;7.936;2022-07-10T03:29:47;15.20;99.90
13682;DHT22;6913;49.892;7.936;2022-07-10T03:32:14;15.30;99.90
13682;DHT22;6913;49.892;7.936;2022-07-10T03:34:41;15.10;99.90
13682;DHT22;6913;49.892;7.936;2022-07-10T03:37:09;15.10;99.90
13682;DHT22;6913;49.892;7.936;2022-07-10T03:39:36;15.10;99.90
13682;DHT22;6913;49.892;7.936;2022-07-10T03:42:04;15.10;99.90
13682;DHT22;6913;49.892;7.936;2022-07-10T03:44:31;15.10;99.90
13682;DHT22;6913;49.892;7.936;2022-07-10T03:46:58;15.10;99.90
13682;DHT22;6913;49.892;7.936;2022-07-10T03:49:25;15.10;99.90
13682;DHT22;6913;49.892;7.936;2022-07-10T03:51:52;15.20;99.90
13682;DHT22;6913;49.892;7.936;2022-07-10T03:54:20;15.00;99.90
13682;DHT22;6913;49.892;7.936;2022-07-10T03:56:48;14.90;99.90
13682;DHT22;6913;49.892;7.936;2022-07-10T03:59:32;14.90;99.90
13682;DHT22;6913;49.892;7.936;2022-07-10T04:01:59;14.90;99.90
13682;DHT22;6913;49.892;7.936;2022-07-10T04:04:25;14.90;99.90
13682;DHT22;6913;49.892;7.936;2022-07-10T04:06:53;14.90;99.90
13682;DHT22;6913;49.892;7.936;2022-07-10T04:09:21;15.10;99.90
13682;DHT22;6913;49.892;7.936;2022-07-10T04:11:48;15.20;99.90
13682;DHT22;6913;49.892;7.936;2022-07-10T04:14:15;15.40;99.90
13682;DHT22;6913;49.892;7.936;2022-07-10T04:16:42;15.70;99.90
13682;DHT22;6913;49.892;7.936;2022-07-10T04:19:09;16.00;99.90
13682;DHT22;6913;49.892;7.936;2022-07-10T04:21:36;16.30;99.90
13682;DHT22;6913;49.892;7.936;2022-07-10T04:24:03;16.50;99.90
13682;DHT22;6913;49.892;7.936;2022-07-10T04:26:31;16.80;99.90
13682;DHT22;6913;49.892;7.936;2022-07-10T04:28:58;16.90;99.90
13682;DHT22;6913;49.892;7.936;2022-07-10T04:31:25;17.10;99.90
13682;DHT22;6913;49.892;7.936;2022-07-10T04:33:52;17.10;99.90
13682;DHT22;6913;49.892;7.936;2022-07-10T04:36:19;17.20;99.90
13682;DHT22;6913;49.892;7.936;2022-07-10T04:38:45;17.40;99.90
13682;DHT22;6913;49.892;7.936;2022-07-10T04:41:12;17.70;99.90
13682;DHT22;6913;49.892;7.936;2022-07-10T04:43:41;17.80;99.90
13682;DHT22;6913;49.892;7.936;2022-07-10T04:46:07;17.80;99.90
13682;DHT22;6913;49.892;7.936;2022-07-10T04:48:34;18.30;99.90
13682;DHT22;6913;49.892;7.936;2022-07-10T04:51:01;18.60;99.90
13682;DHT22;6913;49.892;7.936;2022-07-10T04:53:28;18.70;99.90
13682;DHT22;6913;49.892;7.936;2022-07-10T04:55:55;18.80;99.90
13682;DHT22;6913;49.892;7.936;2022-07-10T04:58:21;18.60;99.90
13682;DHT22;6913;49.892;7.936;2022-07-10T05:00:50;18.60;99.90
13682;DHT22;6913;49.892;7.936;2022-07-10T05:03:17;18.70;99.90
13682;DHT22;6913;49.892;7.936;2022-07-10T05:05:43;18.70;99.90
13682;DHT22;6913;49.892;7.936;2022-07-10T05:08:10;18.60;99.90
13682;DHT22;6913;49.892;7.936;2022-07-10T05:10:37;18.50;99.90
13682;DHT22;6913;49.892;7.936;2022-07-10T05:13:05;18.90;99.90
13682;DHT22;6913;49.892;7.936;2022-07-10T05:15:32;19.00;99.90
13682;DHT22;6913;49.892;7.936;2022-07-10T05:18:00;19.30;99.90
13682;DHT22;6913;49.892;7.936;2022-07-10T05:20:27;19.70;99.90
13682;DHT22;6913;49.892;7.936;2022-07-10T05:22:54;19.60;99.90
13682;DHT22;6913;49.892;7.936;2022-07-10T05:25:21;19.80;99.90
13682;DHT22;6913;49.892;7.936;2022-07-10T05:27:51;20.00;99.90
13682;DHT22;6913;49.892;7.936;2022-07-10T05:30:18;20.70;99.90
13682;DHT22;6913;49.892;7.936;2022-07-10T05:32:45;20.70;99.90
13682;DHT22;6913;49.892;7.936;2022-07-10T05:35:14;20.70;99.90
13682;DHT22;6913;49.892;7.936;2022-07-10T05:37:41;20.80;99.90
13682;DHT22;6913;49.892;7.936;2022-07-10T05:40:09;20.60;99.90
13682;DHT22;6913;49.892;7.936;2022-07-10T05:42:36;20.10;99.90
13682;DHT22;6913;49.892;7.936;2022-07-10T05:45:03;19.60;99.90
13682;DHT22;6913;49.892;7.936;2022-07-10T05:47:31;19.50;99.90
13682;DHT22;6913;49.892;7.936;2022-07-10T05:49:58;19.30;99.90
13682;DHT22;6913;49.892;7.936;2022-07-10T05:52:26;18.80;99.90
13682;DHT22;6913;49.892;7.936;2022-07-10T05:54:55;18.80;99.90
13682;DHT22;6913;49.892;7.936;2022-07-10T05:57:22;19.50;99.90
13682;DHT22;6913;49.892;7.936;2022-07-10T05:59:48;19.90;99.90
13682;DHT22;6913;49.892;7.936;2022-07-10T06:02:15;19.90;99.90
13682;DHT22;6913;49.892;7.936;2022-07-10T06:04:42;20.50;99.90
13682;DHT22;6913;49.892;7.936;2022-07-10T06:07:09;20.50;99.90
13682;DHT22;6913;49.892;7.936;2022-07-10T06:09:37;21.10;99.90
13682;DHT22;6913;49.892;7.936;2022-07-10T06:12:04;21.20;99.90
13682;DHT22;6913;49.892;7.936;2022-07-10T06:14:31;21.10;99.90
13682;DHT22;6913;49.892;7.936;2022-07-10T06:16:58;20.90;99.90
13682;DHT22;6913;49.892;7.936;2022-07-10T06:19:25;20.10;99.90
13682;DHT22;6913;49.892;7.936;2022-07-10T06:21:52;20.30;99.90
13682;DHT22;6913;49.892;7.936;2022-07-10T06:24:33;20.80;99.90
13682;DHT22;6913;49.892;7.936;2022-07-10T06:27:01;21.00;99.90
13682;DHT22;6913;49.892;7.936;2022-07-10T06:29:28;20.80;99.90
13682;DHT22;6913;49.892;7.936;2022-07-10T06:31:55;21.10;99.90
13682;DHT22;6913;49.892;7.936;2022-07-10T06:34:21;21.30;99.90
13682;DHT22;6913;49.892;7.936;2022-07-10T06:36:48;21.40;99.90
13682;DHT22;6913;49.892;7.936;2022-07-10T06:39:15;20.90;99.90
13682;DHT22;6913;49.892;7.936;2022-07-10T06:41:42;20.90;99.90
13682;DHT22;6913;49.892;7.936;2022-07-10T06:44:10;21.20;99.90
13682;DHT22;6913;49.892;7.936;2022-07-10T06:46:37;21.30;99.90
13682;DHT22;6913;49.892;7.936;2022-07-10T06:49:04;21.10;99.90
13682;DHT22;6913;49.892;7.936;2022-07-10T06:51:31;21.10;99.90
13682;DHT22;6913;49.892;7.936;2022-07-10T06:53:58;21.60;99.90
13682;DHT22;6913;49.892;7.936;2022-07-10T06:56:25;22.60;99.90
13682;DHT22;6913;49.892;7.936;2022-07-10T06:58:52;22.40;99.90
13682;DHT22;6913;49.892;7.936;2022-07-10T07:01:20;21.70;99.90
13682;DHT22;6913;49.892;7.936;2022-07-10T07:03:47;22.30;99.90
13682;DHT22;6913;49.892;7.936;2022-07-10T07:06:14;23.40;99.90
13682;DHT22;6913;49.892;7.936;2022-07-10T07:08:41;23.70;99.90
13682;DHT22;6913;49.892;7.936;2022-07-10T07:11:08;23.00;99.90
13682;DHT22;6913;49.892;7.936;2022-07-10T07:13:35;22.70;99.90
13682;DHT22;6913;49.892;7.936;2022-07-10T07:16:02;22.70;99.90
13682;DHT22;6913;49.892;7.936;2022-07-10T07:18:33;22.20;99.90
13682;DHT22;6913;49.892;7.936;2022-07-10T07:21:02;21.60;99.90
13682;DHT22;6913;49.892;7.936;2022-07-10T07:23:47;20.50;99.90
13682;DHT22;6913;49.892;7.936;2022-07-10T07:26:14;21.00;99.90
13682;DHT22;6913;49.892;7.936;2022-07-10T07:28:41;21.30;99.90
13682;DHT22;6913;49.892;7.936;2022-07-10T07:31:08;22.00;99.90
13682;DHT22;6913;49.892;7.936;2022-07-10T07:33:36;21.80;99.90
13682;DHT22;6913;49.892;7.936;2022-07-10T07:36:04;21.80;99.90
13682;DHT22;6913;49.892;7.936;2022-07-10T07:38:31;22.10;99.40
13682;DHT22;6913;49.892;7.936;2022-07-10T07:40:57;21.70;99.70
13682;DHT22;6913;49.892;7.936;2022-07-10T07:43:24;21.20;99.90
13682;DHT22;6913;49.892;7.936;2022-07-10T07:45:51;21.30;99.90
13682;DHT22;6913;49.892;7.936;2022-07-10T07:48:18;21.60;99.50
13682;DHT22;6913;49.892;7.936;2022-07-10T07:50:46;21.10;99.90
13682;DHT22;6913;49.892;7.936;2022-07-10T07:53:13;20.50;99.90
13682;DHT22;6913;49.892;7.936;2022-07-10T07:55:40;20.60;99.90
13682;DHT22;6913;49.892;7.936;2022-07-10T07:58:07;20.60;99.90
13682;DHT22;6913;49.892;7.936;2022-07-10T08:00:34;20.90;99.90
13682;DHT22;6913;49.892;7.936;2022-07-10T08:03:01;21.10;99.90
13682;DHT22;6913;49.892;7.936;2022-07-10T08:05:28;20.90;99.90
13682;DHT22;6913;49.892;7.936;2022-07-10T08:07:58;20.50;99.30
13682;DHT22;6913;49.892;7.936;2022-07-10T08:10:32;20.10;99.90
13682;DHT22;6913;49.892;7.936;2022-07-10T08:12:58;20.00;99.90
13682;DHT22;6913;49.892;7.936;2022-07-10T08:15:25;20.80;99.70
13682;DHT22;6913;49.892;7.936;2022-07-10T08:17:53;20.80;99.70
13682;DHT22;6913;49.892;7.936;2022-07-10T08:20:22;20.80;99.90
13682;DHT22;6913;49.892;7.936;2022-07-10T08:22:49;20.10;99.90
13682;DHT22;6913;49.892;7.936;2022-07-10T08:25:19;20.20;99.90
13682;DHT22;6913;49.892;7.936;2022-07-10T08:27:47;20.80;99.90
13682;DHT22;6913;49.892;7.936;2022-07-10T08:30:13;21.10;99.90
13682;DHT22;6913;49.892;7.936;2022-07-10T08:32:41;21.70;99.90
13682;DHT22;6913;49.892;7.936;2022-07-10T08:35:09;22.00;99.90
13682;DHT22;6913;49.892;7.936;2022-07-10T08:37:40;21.70;99.90
13682;DHT22;6913;49.892;7.936;2022-07-10T08:40:08;21.60;99.90
13682;DHT22;6913;49.892;7.936;2022-07-10T08:42:37;21.60;99.90
13682;DHT22;6913;49.892;7.936;2022-07-10T08:45:05;21.50;99.90
13682;DHT22;6913;49.892;7.936;2022-07-10T08:47:34;21.30;99.90
13682;DHT22;6913;49.892;7.936;2022-07-10T08:50:01;21.00;99.90
13682;DHT22;6913;49.892;7.936;2022-07-10T08:52:33;20.70;99.90
13682;DHT22;6913;49.892;7.936;2022-07-10T08:55:00;20.60;99.90
13682;DHT22;6913;49.892;7.936;2022-07-10T08:57:28;20.50;99.90
13682;DHT22;6913;49.892;7.936;2022-07-10T08:59:58;21.20;99.90
13682;DHT22;6913;49.892;7.936;2022-07-10T09:02:25;22.20;99.90
13682;DHT22;6913;49.892;7.936;2022-07-10T09:04:52;23.00;99.90
13682;DHT22;6913;49.892;7.936;2022-07-10T09:07:19;23.20;99.90
13682;DHT22;6913;49.892;7.936;2022-07-10T09:09:53;24.00;99.90
13682;DHT22;6913;49.892;7.936;2022-07-10T09:12:20;24.10;99.00
13682;DHT22;6913;49.892;7.936;2022-07-10T09:14:47;23.90;98.30
13682;DHT22;6913;49.892;7.936;2022-07-10T09:17:16;23.20;99.10
13682;DHT22;6913;49.892;7.936;2022-07-10T09:19:43;22.80;99.60
13682;DHT22;6913;49.892;7.936;2022-07-10T09:22:12;22.50;99.90
13682;DHT22;6913;49.892;7.936;2022-07-10T09:24:41;22.10;99.90
13682;DHT22;6913;49.892;7.936;2022-07-10T09:27:10;21.90;99.90
13682;DHT22;6913;49.892;7.936;2022-07-10T09:29:47;21.80;99.90
13682;DHT22;6913;49.892;7.936;2022-07-10T09:32:17;21.70;99.90
13682;DHT22;6913;49.892;7.936;2022-07-10T09:34:45;22.20;99.90
13682;DHT22;6913;49.892;7.936;2022-07-10T09:37:23;22.50;99.90
13682;DHT22;6913;49.892;7.936;2022-07-10T09:39:57;22.60;99.80
13682;DHT22;6913;49.892;7.936;2022-07-10T09:42:29;23.00;99.90
13682;DHT22;6913;49.892;7.936;2022-07-10T09:45:16;23.10;99.90
13682;DHT22;6913;49.892;7.936;2022-07-10T09:47:47;23.40;99.10
13682;DHT22;6913;49.892;7.936;2022-07-10T09:50:21;23.00;98.60
13682;DHT22;6913;49.892;7.936;2022-07-10T09:52:50;23.80;98.50
13682;DHT22;6913;49.892;7.936;2022-07-10T09:55:19;24.40;98.60
13682;DHT22;6913;49.892;7.936;2022-07-10T09:57:52;24.30;97.90
13682;DHT22;6913;49.892;7.936;2022-07-10T10:00:22;24.20;98.60
13682;DHT22;6913;49.892;7.936;2022-07-10T10:02:54;23.30;98.50
13682;DHT22;6913;49.892;7.936;2022-07-10T10:05:27;23.20;98.90
13682;DHT22;6913;49.892;7.936;2022-07-10T10:07:55;23.40;98.90
13682;DHT22;6913;49.892;7.936;2022-07-10T10:10:23;23.40;98.90
13682;DHT22;6913;49.892;7.936;2022-07-10T10:12:55;23.40;98.50
13682;DHT22;6913;49.892;7.936;2022-07-10T10:15:26;23.40;98.50
13682;DHT22;6913;49.892;7.936;2022-07-10T10:17:55;23.50;97.80
13682;DHT22;6913;49.892;7.936;2022-07-10T10:20:22;23.40;98.00
13682;DHT22;6913;49.892;7.936;2022-07-10T10:23:04;23.80;98.80
13682;DHT22;6913;49.892;7.936;2022-07-10T10:25:32;24.40;96.70
13682;DHT22;6913;49.892;7.936;2022-07-10T10:28:01;24.30;96.90
13682;DHT22;6913;49.892;7.936;2022-07-10T10:30:28;23.90;97.70
13682;DHT22;6913;49.892;7.936;2022-07-10T10:32:57;24.00;97.80
13682;DHT22;6913;49.892;7.936;2022-07-10T10:35:44;24.40;97.30
13682;DHT22;6913;49.892;7.936;2022-07-10T10:38:12;25.20;97.00
13682;DHT22;6913;49.892;7.936;2022-07-10T10:40:39;26.00;95.40
13682;DHT22;6913;49.892;7.936;2022-07-10T10:43:16;26.00;95.90
13682;DHT22;6913;49.892;7.936;2022-07-10T10:45:45;26.60;95.30
13682;DHT22;6913;49.892;7.936;2022-07-10T10:48:14;26.60;93.90
13682;DHT22;6913;49.892;7.936;2022-07-10T10:50:42;27.00;93.80
13682;DHT22;6913;49.892;7.936;2022-07-10T10:53:16;27.00;92.90
13682;DHT22;6913;49.892;7.936;2022-07-10T10:56:22;26.50;93.50
13682;DHT22;6913;49.892;7.936;2022-07-10T10:58:52;25.90;94.00
13682;DHT22;6913;49.892;7.936;2022-07-10T11:01:27;25.70;94.50
13682;DHT22;6913;49.892;7.936;2022-07-10T11:04:15;25.60;94.10
13682;DHT22;6913;49.892;7.936;2022-07-10T11:06:44;25.50;94.90
13682;DHT22;6913;49.892;7.936;2022-07-10T11:09:25;25.70;95.30
13682;DHT22;6913;49.892;7.936;2022-07-10T11:12:00;26.30;94.50
13682;DHT22;6913;49.892;7.936;2022-07-10T11:14:28;26.20;94.20
13682;DHT22;6913;49.892;7.936;2022-07-10T11:16:55;26.00;93.60
13682;DHT22;6913;49.892;7.936;2022-07-10T11:19:25;25.70;93.60
13682;DHT22;6913;49.892;7.936;2022-07-10T11:22:13;26.40;92.90
13682;DHT22;6913;49.892;7.936;2022-07-10T11:24:49;26.70;93.10
13682;DHT22;6913;49.892;7.936;2022-07-10T11:27:28;26.70;92.20
13682;DHT22;6913;49.892;7.936;2022-07-10T11:29:59;26.80;92.30
13682;DHT22;6913;49.892;7.936;2022-07-10T11:32:26;26.40;92.30
13682;DHT22;6913;49.892;7.936;2022-07-10T11:34:55;25.90;93.50
13682;DHT22;6913;49.892;7.936;2022-07-10T11:37:22;25.70;93.30
13682;DHT22;6913;49.892;7.936;2022-07-10T11:40:08;26.00;93.80
13682;DHT22;6913;49.892;7.936;2022-07-10T11:42:48;26.80;93.20
13682;DHT22;6913;49.892;7.936;2022-07-10T11:45:25;26.70;92.40
13682;DHT22;6913;49.892;7.936;2022-07-10T11:47:52;26.20;92.60
13682;DHT22;6913;49.892;7.936;2022-07-10T11:50:20;26.00;93.50
13682;DHT22;6913;49.892;7.936;2022-07-10T11:52:47;26.30;92.70
13682;DHT22;6913;49.892;7.936;2022-07-10T11:55:16;26.20;92.50
13682;DHT22;6913;49.892;7.936;2022-07-10T11:57:43;26.20;93.10
13682;DHT22;6913;49.892;7.936;2022-07-10T12:00:24;26.90;93.50
13682;DHT22;6913;49.892;7.936;2022-07-10T12:02:52;26.90;92.20
13682;DHT22;6913;49.892;7.936;2022-07-10T12:05:35;26.90;92.40
13682;DHT22;6913;49.892;7.936;2022-07-10T12:08:02;26.70;92.60
13682;DHT22;6913;49.892;7.936;2022-07-10T12:10:30;27.20;92.70
13682;DHT22;6913;49.892;7.936;2022-07-10T12:13:04;27.40;92.20
13682;DHT22;6913;49.892;7.936;2022-07-10T12:15:35;27.30;91.30
13682;DHT22;6913;49.892;7.936;2022-07-10T12:18:03;27.10;92.20
13682;DHT22;6913;49.892;7.936;2022-07-10T12:20:32;27.20;91.80
13682;DHT22;6913;49.892;7.936;2022-07-10T12:22:59;27.60;92.20
13682;DHT22;6913;49.892;7.936;2022-07-10T12:25:26;28.00;91.00
13682;DHT22;6913;49.892;7.936;2022-07-10T12:27:57;27.80;91.00
13682;DHT22;6913;49.892;7.936;2022-07-10T12:30:38;27.60;91.50
13682;DHT22;6913;49.892;7.936;2022-07-10T12:33:07;27.90;91.10
13682;DHT22;6913;49.892;7.936;2022-07-10T12:35:47;27.90;91.70
13682;DHT22;6913;49.892;7.936;2022-07-10T12:38:16;27.60;91.20
13682;DHT22;6913;49.892;7.936;2022-07-10T12:40:43;27.20;90.90
13682;DHT22;6913;49.892;7.936;2022-07-10T12:43:10;26.70;92.10
13682;DHT22;6913;49.892;7.936;2022-07-10T12:45:38;26.80;92.10
13682;DHT22;6913;49.892;7.936;2022-07-10T12:48:05;27.20;92.80
13682;DHT22;6913;49.892;7.936;2022-07-10T12:50:32;27.20;92.10
13682;DHT22;6913;49.892;7.936;2022-07-10T12:53:08;26.80;92.30
13682;DHT22;6913;49.892;7.936;2022-07-10T12:55:37;26.20;92.90
13682;DHT22;6913;49.892;7.936;2022-07-10T12:58:08;26.00;93.20
13682;DHT22;6913;49.892;7.936;2022-07-10T13:00:44;26.00;93.30
13682;DHT22;6913;49.892;7.936;2022-07-10T13:03:18;26.20;93.40
13682;DHT22;6913;49.892;7.936;2022-07-10T13:05:45;25.90;93.30
13682;DHT22;6913;49.892;7.936;2022-07-10T13:08:14;25.60;93.30
13682;DHT22;6913;49.892;7.936;2022-07-10T13:10:43;25.20;93.70
13682;DHT22;6913;49.892;7.936;2022-07-10T13:13:10;25.60;93.60
13682;DHT22;6913;49.892;7.936;2022-07-10T13:15:37;25.50;94.20
13682;DHT22;6913;49.892;7.936;2022-07-10T13:18:07;25.10;94.60
13682;DHT22;6913;49.892;7.936;2022-07-10T13:20:34;25.30;94.60
13682;DHT22;6913;49.892;7.936;2022-07-10T13:23:01;25.70;94.10
13682;DHT22;6913;49.892;7.936;2022-07-10T13:25:29;25.80;93.60
13682;DHT22;6913;49.892;7.936;2022-07-10T13:27:56;26.00;93.80
13682;DHT22;6913;49.892;7.936;2022-07-10T13:30:23;26.00;93.60
13682;DHT22;6913;49.892;7.936;2022-07-10T13:32:50;26.40;93.90
13682;DHT22;6913;49.892;7.936;2022-07-10T13:35:17;26.60;93.20
13682;DHT22;6913;49.892;7.936;2022-07-10T13:37:43;25.80;93.40
13682;DHT22;6913;49.892;7.936;2022-07-10T13:40:12;25.50;94.30
13682;DHT22;6913;49.892;7.936;2022-07-10T13:42:40;25.00;94.90
13682;DHT22;6913;49.892;7.936;2022-07-10T13:45:08;25.00;95.70
13682;DHT22;6913;49.892;7.936;2022-07-10T13:47:34;25.00;95.60
13682;DHT22;6913;49.892;7.936;2022-07-10T13:50:02;24.90;95.60
13682;DHT22;6913;49.892;7.936;2022-07-10T13:52:29;24.80;95.60
13682;DHT22;6913;49.892;7.936;2022-07-10T13:54:56;24.90;96.20
13682;DHT22;6913;49.892;7.936;2022-07-10T13:57:23;24.60;96.00
13682;DHT22;6913;49.892;7.936;2022-07-10T13:59:52;24.10;96.60
13682;DHT22;6913;49.892;7.936;2022-07-10T14:02:19;24.40;96.90
13682;DHT22;6913;49.892;7.936;2022-07-10T14:04:46;24.90;96.10
13682;DHT22;6913;49.892;7.936;2022-07-10T14:07:13;25.10;95.90
13682;DHT22;6913;49.892;7.936;2022-07-10T14:09:40;25.30;95.90
13682;DHT22;6913;49.892;7.936;2022-07-10T14:12:08;25.00;95.80
13682;DHT22;6913;49.892;7.936;2022-07-10T14:14:35;24.90;95.80
13682;DHT22;6913;49.892;7.936;2022-07-10T14:17:03;24.90;96.30
13682;DHT22;6913;49.892;7.936;2022-07-10T14:19:30;25.00;96.50
13682;DHT22;6913;49.892;7.936;2022-07-10T14:21:57;24.90;95.90
13682;DHT22;6913;49.892;7.936;2022-07-10T14:24:25;24.90;96.40
13682;DHT22;6913;49.892;7.936;2022-07-10T14:26:52;24.70;96.20
13682;DHT22;6913;49.892;7.936;2022-07-10T14:29:19;24.50;96.50
13682;DHT22;6913;49.892;7.936;2022-07-10T14:31:46;24.30;97.10
13682;DHT22;6913;49.892;7.936;2022-07-10T14:34:16;24.30;97.40
13682;DHT22;6913;49.892;7.936;2022-07-10T14:36:42;24.30;97.10
13682;DHT22;6913;49.892;7.936;2022-07-10T14:39:09;24.40;97.80
13682;DHT22;6913;49.892;7.936;2022-07-10T14:41:37;24.20;97.50
13682;DHT22;6913;49.892;7.936;2022-07-10T14:44:04;24.10;97.60
13682;DHT22;6913;49.892;7.936;2022-07-10T14:46:31;24.00;97.60
13682;DHT22;6913;49.892;7.936;2022-07-10T14:48:59;24.10;97.80
13682;DHT22;6913;49.892;7.936;2022-07-10T14:51:27;23.90;98.20
13682;DHT22;6913;49.892;7.936;2022-07-10T14:53:55;23.80;98.30
13682;DHT22;6913;49.892;7.936;2022-07-10T14:56:22;23.80;98.50
13682;DHT22;6913;49.892;7.936;2022-07-10T14:58:49;23.80;98.80
13682;DHT22;6913;49.892;7.936;2022-07-10T15:01:16;23.70;99.00
13682;DHT22;6913;49.892;7.936;2022-07-10T15:03:43;23.70;99.10
13682;DHT22;6913;49.892;7.936;2022-07-10T15:06:10;23.90;99.20
13682;DHT22;6913;49.892;7.936;2022-07-10T15:08:39;24.00;99.20
13682;DHT22;6913;49.892;7.936;2022-07-10T15:11:06;24.10;98.80
13682;DHT22;6913;49.892;7.936;2022-07-10T15:13:33;23.60;99.10
13682;DHT22;6913;49.892;7.936;2022-07-10T15:16:00;24.10;99.30
13682;DHT22;6913;49.892;7.936;2022-07-10T15:18:27;24.00;99.40
13682;DHT22;6913;49.892;7.936;2022-07-10T15:20:53;24.30;99.10
13682;DHT22;6913;49.892;7.936;2022-07-10T15:23:21;24.50;99.10
13682;DHT22;6913;49.892;7.936;2022-07-10T15:25:49;24.40;99.30
13682;DHT22;6913;49.892;7.936;2022-07-10T15:28:16;24.30;99.40
13682;DHT22;6913;49.892;7.936;2022-07-10T15:30:43;24.10;99.70
13682;DHT22;6913;49.892;7.936;2022-07-10T15:33:10;24.10;99.80
13682;DHT22;6913;49.892;7.936;2022-07-10T15:35:37;24.10;99.90
13682;DHT22;6913;49.892;7.936;2022-07-10T15:38:04;24.10;99.90
13682;DHT22;6913;49.892;7.936;2022-07-10T15:40:31;24.10;99.90
13682;DHT22;6913;49.892;7.936;2022-07-10T15:42:59;24.00;99.80
13682;DHT22;6913;49.892;7.936;2022-07-10T15:45:27;23.90;99.90
13682;DHT22;6913;49.892;7.936;2022-07-10T15:47:53;23.80;99.90
13682;DHT22;6913;49.892;7.936;2022-07-10T15:50:21;23.90;99.90
13682;DHT22;6913;49.892;7.936;2022-07-10T15:52:47;23.80;99.90